Time;durP1;ratioP1;P1;durP2;ratioP2;P2;SDS_P1;SDS_P2;PMS_P1;PMS_P2;Temp;Humidity;BMP_temperature;BMP_pressure;BME280_temperature;BME280_humidity;BME280_pressure;Samples;Min_cycle;Max_cycle;Signal;HPM_P1;HPM_P2
2023/04/03 00:00:41;;;;;;;4.25;2.75;;;;;;;6.01;63.82;99071.97;7399852;19;20556;-73
2023/04/03 00:03:08;;;;;;;2.83;2.17;;;;;;;6.01;64.01;99063.25;7399326;19;19933;-72
2023/04/03 00:05:35;;;;;;;3.15;2.88;;;;;;;5.91;63.64;99065.66;7397386;19;19914;-72
2023/04/03 00:08:02;;;;;;;4.10;2.85;;;;;;;5.59;62.25;99055.66;7399858;19;19919;-72
2023/04/03 00:10:29;;;;;;;4.25;3.00;;;;;;;5.78;64.46;99059.59;7397092;19;19950;-72
2023/04/03 00:12:56;;;;;;;3.38;2.53;;;;;;;5.79;63.94;99063.91;7398652;19;20002;-72
2023/04/03 00:15:23;;;;;;;6.32;3.42;;;;;;;5.77;64.43;99065.81;7398517;19;19922;-72
2023/04/03 00:17:49;;;;;;;4.25;3.15;;;;;;;5.79;65.28;99072.59;7396842;19;20356;-72
2023/04/03 00:20:16;;;;;;;3.47;3.17;;;;;;;5.75;63.84;99067.69;7399899;19;19930;-72
2023/04/03 00:22:43;;;;;;;3.25;2.80;;;;;;;5.77;64.67;99065.81;7398736;19;19917;-72
2023/04/03 00:25:10;;;;;;;3.00;2.80;;;;;;;5.70;64.21;99060.97;7396773;19;19922;-72
2023/04/03 00:27:39;;;;;;;4.50;3.53;;;;;;;5.73;64.18;99062.53;7400544;19;19947;-72
2023/04/03 00:30:07;;;;;;;4.05;2.83;;;;;;;5.78;65.28;99063.06;7398268;19;19922;-72
2023/04/03 00:32:34;;;;;;;4.40;2.95;;;;;;;5.79;65.11;99066.53;7394861;19;19918;-72
2023/04/03 00:35:01;;;;;;;3.75;3.30;;;;;;;5.58;63.95;99067.09;7398923;19;19929;-72
2023/04/03 00:37:28;;;;;;;4.75;3.30;;;;;;;5.68;64.71;99062.03;7396574;19;19944;-72
2023/04/03 00:39:55;;;;;;;4.35;2.80;;;;;;;5.73;65.38;99065.16;7397561;19;20292;-72
2023/04/03 00:42:22;;;;;;;5.43;3.38;;;;;;;5.45;64.57;99067.13;7397945;19;19921;-72
2023/04/03 00:44:48;;;;;;;3.47;3.17;;;;;;;5.44;64.37;99072.47;7395942;19;19919;-72
2023/04/03 00:47:17;;;;;;;3.22;2.67;;;;;;;5.50;65.38;99066.78;7396976;19;19923;-72
2023/04/03 00:49:44;;;;;;;6.60;6.10;;;;;;;5.53;65.28;99068.34;7394835;19;20264;-72
2023/04/03 00:52:15;;;;;;;4.00;2.38;;;;;;;5.58;65.40;99067.09;7394854;19;19947;-72
2023/04/03 00:54:43;;;;;;;4.18;3.20;;;;;;;5.62;65.29;99072.97;7394846;19;19914;-72
2023/04/03 00:57:11;;;;;;;4.10;2.97;;;;;;;5.55;65.17;99061.22;7400014;19;20624;-72
2023/04/03 00:59:45;;;;;;;4.13;3.75;;;;;;;5.61;65.17;99059.00;7396235;19;19992;-72
2023/04/03 01:02:11;;;;;;;4.55;3.13;;;;;;;5.54;65.48;99055.13;7398574;19;19929;-72
2023/04/03 01:04:41;;;;;;;3.67;3.03;;;;;;;5.48;65.67;99059.03;7391941;19;19926;-72
2023/04/03 01:07:11;;;;;;;3.72;3.17;;;;;;;5.51;66.34;99055.34;7396252;19;20339;-72
2023/04/03 01:09:38;;;;;;;4.78;3.35;;;;;;;5.46;66.01;99066.16;7392944;19;19919;-72
2023/04/03 01:12:22;;;;;;;5.45;2.97;;;;;;;5.42;66.40;99061.22;7394613;19;20328;-72
2023/04/03 01:14:51;;;;;;;4.47;2.80;;;;;;;5.55;66.96;99058.59;7394847;19;20622;-72
2023/04/03 01:17:28;;;;;;;4.40;3.45;;;;;;;5.55;67.08;99063.84;7399957;19;19930;-72
2023/04/03 01:20:12;;;;;;;4.13;3.10;;;;;;;5.60;67.46;99057.31;7398740;19;19981;-72
2023/04/03 01:22:52;;;;;;;5.82;3.17;;;;;;;5.50;66.49;99059.75;7393086;19;19982;-72
2023/04/03 01:25:19;;;;;;;3.42;3.13;;;;;;;5.55;67.21;99062.03;7391812;19;19922;-72
2023/04/03 01:27:46;;;;;;;5.85;3.47;;;;;;;5.58;67.14;99066.25;7393543;19;19921;-72
2023/04/03 01:30:14;;;;;;;3.22;2.92;;;;;;;5.46;66.94;99057.47;7399028;19;19919;-72
2023/04/03 01:32:41;;;;;;;3.88;3.15;;;;;;;5.38;66.07;99065.03;7393171;19;19918;-72
2023/04/03 01:35:09;;;;;;;3.45;2.75;;;;;;;5.34;66.29;99059.13;7394247;19;19930;-71
2023/04/03 01:37:36;;;;;;;3.45;3.15;;;;;;;5.40;66.68;99058.72;7396620;19;20367;-71
2023/04/03 01:40:04;;;;;;;4.55;3.25;;;;;;;5.44;66.78;99064.59;7393335;19;20350;-72
2023/04/03 01:42:30;;;;;;;3.38;2.30;;;;;;;5.40;66.38;99063.13;7392459;19;19915;-72
2023/04/03 01:44:57;;;;;;;3.05;2.60;;;;;;;5.40;66.46;99061.34;7389569;19;19943;-72
2023/04/03 01:47:24;;;;;;;2.90;2.63;;;;;;;5.37;66.21;99064.19;7398034;19;19919;-72
2023/04/03 01:49:51;;;;;;;4.22;3.72;;;;;;;5.36;66.05;99064.28;7388973;19;20504;-72
2023/04/03 01:52:18;;;;;;;3.20;2.63;;;;;;;5.35;66.54;99065.25;7387886;19;19923;-72
2023/04/03 01:54:45;;;;;;;5.65;5.13;;;;;;;5.33;66.32;99064.50;7389251;19;20440;-72
2023/04/03 01:57:13;;;;;;;3.35;2.58;;;;;;;5.34;66.36;99079.28;7395367;19;19953;-72
2023/04/03 01:59:40;;;;;;;5.50;5.10;;;;;;;5.24;66.17;99073.84;7393714;19;20324;-72
2023/04/03 02:02:07;;;;;;;3.38;3.08;;;;;;;5.30;66.93;99062.09;7391772;19;19922;-72
2023/04/03 02:04:35;;;;;;;5.05;4.65;;;;;;;5.33;66.98;99067.94;7388116;19;20272;-72
2023/04/03 02:07:02;;;;;;;3.03;2.38;;;;;;;5.19;66.08;99062.81;7394057;19;19922;-72
2023/04/03 02:09:28;;;;;;;3.20;2.90;;;;;;;5.16;65.71;99071.75;7390801;19;19915;-72
2023/04/03 02:11:55;;;;;;;4.32;4.03;;;;;;;5.23;66.33;99064.28;7391879;19;20351;-72
2023/04/03 02:14:23;;;;;;;3.78;3.05;;;;;;;4.96;65.96;99065.22;7392812;19;19930;-72
2023/04/03 02:16:50;;;;;;;4.82;3.08;;;;;;;5.07;66.29;99060.06;7392827;19;19918;-71
2023/04/03 02:19:17;;;;;;;4.68;3.35;;;;;;;5.08;65.56;99074.03;7393348;19;19922;-72
2023/04/03 02:21:43;;;;;;;3.28;2.85;;;;;;;5.09;65.62;99065.22;7391449;19;19918;-72
2023/04/03 02:24:10;;;;;;;3.38;3.08;;;;;;;4.97;65.18;99071.28;7392025;19;19922;-72
2023/04/03 02:26:37;;;;;;;3.22;2.92;;;;;;;4.90;65.61;99067.38;7388271;19;19922;-72
2023/04/03 02:29:04;;;;;;;3.58;2.83;;;;;;;4.95;65.08;99068.78;7389015;19;19926;-72
2023/04/03 02:31:31;;;;;;;3.97;2.67;;;;;;;5.02;65.81;99077.06;7379235;19;19915;-72
2023/04/03 02:34:00;;;;;;;3.67;2.92;;;;;;;5.02;65.14;99069.19;7394173;19;19926;-72
2023/04/03 02:36:27;;;;;;;3.50;2.60;;;;;;;5.00;64.04;99076.31;7392376;19;19939;-72
2023/04/03 02:38:58;;;;;;;4.05;3.58;;;;;;;5.04;65.19;99067.31;7392690;19;19922;-72
2023/04/03 02:41:27;;;;;;;3.60;2.90;;;;;;;5.07;64.81;99070.56;7391969;19;19986;-72
2023/04/03 02:43:55;;;;;;;6.80;6.18;;;;;;;5.16;65.38;99071.75;7386978;19;20268;-72
2023/04/03 02:46:22;;;;;;;2.50;2.25;;;;;;;5.08;64.10;99071.41;7392188;19;20337;-72
2023/04/03 02:48:49;;;;;;;3.67;3.28;;;;;;;5.13;64.30;99071.94;7389259;19;19930;-72
2023/04/03 02:51:16;;;;;;;2.97;2.78;;;;;;;5.14;64.55;99076.25;7392747;19;19930;-72
2023/04/03 02:53:42;;;;;;;4.32;2.90;;;;;;;5.19;64.38;99071.53;7382097;19;19929;-72
2023/04/03 02:56:14;;;;;;;6.38;3.85;;;;;;;5.18;64.85;99076.88;7388813;19;19918;-71
2023/04/03 02:58:41;;;;;;;3.88;2.50;;;;;;;5.22;64.88;99081.81;7391892;19;20444;-72
2023/04/03 03:01:09;;;;;;;3.65;3.10;;;;;;;5.27;64.81;99069.22;7387258;19;20521;-72
2023/04/03 03:03:36;;;;;;;3.90;2.60;;;;;;;5.35;65.07;99075.72;7390846;19;19927;-72
2023/04/03 03:06:11;;;;;;;5.05;4.65;;;;;;;5.26;64.51;99067.53;7395611;19;20329;-72
2023/04/03 03:08:39;;;;;;;3.03;2.83;;;;;;;5.30;64.27;99069.97;7391997;19;19943;-72
2023/04/03 03:11:06;;;;;;;2.97;2.20;;;;;;;5.40;64.46;99071.00;7392315;19;19919;-72
2023/04/03 03:13:34;;;;;;;3.92;3.45;;;;;;;5.31;63.74;99069.84;7393120;19;19918;-72
2023/04/03 03:16:01;;;;;;;3.97;2.85;;;;;;;5.36;64.03;99069.53;7393114;19;19918;-72
2023/04/03 03:18:28;;;;;;;2.95;2.70;;;;;;;5.42;64.91;99069.94;7388715;19;19933;-72
2023/04/03 03:20:57;;;;;;;3.78;3.47;;;;;;;5.49;65.07;99067.72;7385610;19;19921;-72
2023/04/03 03:23:25;;;;;;;2.85;2.63;;;;;;;5.53;65.13;99065.72;7392043;19;19992;-72
2023/04/03 03:25:57;;;;;;;3.58;3.28;;;;;;;5.47;64.04;99070.44;7388738;19;19922;-72
2023/04/03 03:28:24;;;;;;;4.05;3.75;;;;;;;5.52;65.31;99061.44;7394043;19;20284;-72
2023/04/03 03:30:51;;;;;;;3.67;2.58;;;;;;;5.59;65.55;99076.66;7393505;19;19932;-72
2023/04/03 03:33:18;;;;;;;3.42;3.22;;;;;;;5.62;65.40;99073.81;7386765;19;20581;-72
2023/04/03 03:35:45;;;;;;;4.78;2.92;;;;;;;5.64;64.81;99073.72;7397135;19;19918;-72
2023/04/03 03:38:12;;;;;;;3.45;3.13;;;;;;;5.64;64.69;99074.53;7395388;19;19921;-72
2023/04/03 03:40:39;;;;;;;4.50;4.20;;;;;;;5.63;64.72;99074.63;7395478;19;20344;-72
2023/04/03 03:43:06;;;;;;;2.47;2.28;;;;;;;5.66;64.61;99071.78;7394795;19;19922;-72
2023/04/03 03:45:33;;;;;;;4.60;3.10;;;;;;;5.66;64.72;99075.28;7383220;19;19925;-72
2023/04/03 03:48:01;;;;;;;3.15;2.85;;;;;;;5.69;64.47;99069.81;7395785;19;19955;-72
2023/04/03 03:50:28;;;;;;;3.05;2.75;;;;;;;5.68;64.33;99073.38;7383453;19;19926;-72
2023/04/03 03:52:55;;;;;;;4.07;3.67;;;;;;;5.66;63.83;99079.66;7385504;19;19926;-72
2023/04/03 03:55:22;;;;;;;3.35;2.78;;;;;;;5.72;64.25;99076.63;7390838;19;19922;-72
2023/04/03 03:57:52;;;;;;;4.35;3.95;;;;;;;5.71;64.08;99074.94;7380222;19;20272;-72
2023/04/03 04:00:20;;;;;;;3.50;2.53;;;;;;;5.70;63.45;99076.72;7386446;19;19926;-72
2023/04/03 04:02:52;;;;;;;3.50;3.20;;;;;;;5.71;64.26;99083.69;7393069;19;19926;-72
2023/04/03 04:05:22;;;;;;;3.28;2.97;;;;;;;5.68;64.12;99075.16;7389185;19;19919;-72
2023/04/03 04:07:49;;;;;;;4.22;3.92;;;;;;;5.73;64.06;99080.94;7394278;19;19998;-72
2023/04/03 04:10:16;;;;;;;3.65;3.00;;;;;;;5.76;64.36;99080.72;7394975;19;19939;-72
2023/04/03 04:12:44;;;;;;;3.13;2.80;;;;;;;5.71;64.13;99083.69;7385615;19;19939;-72
2023/04/03 04:15:11;;;;;;;3.80;3.40;;;;;;;5.70;63.53;99084.59;7392999;19;19915;-72
2023/04/03 04:17:39;;;;;;;5.68;4.05;;;;;;;5.68;63.58;99075.16;7395579;19;20657;-72
2023/04/03 04:20:10;;;;;;;3.75;3.53;;;;;;;5.66;62.33;99082.28;7396555;19;20233;-72
2023/04/03 04:22:39;;;;;;;2.80;2.60;;;;;;;5.67;62.52;99074.31;7384269;19;19936;-72
2023/04/03 04:25:06;;;;;;;4.70;3.17;;;;;;;5.64;62.65;99071.91;7394658;19;19919;-72
2023/04/03 04:27:33;;;;;;;2.40;2.22;;;;;;;5.63;62.79;99077.25;7395904;19;19922;-72
2023/04/03 04:30:01;;;;;;;3.13;2.83;;;;;;;5.61;62.71;99073.91;7395721;19;19989;-72
2023/04/03 04:32:28;;;;;;;2.75;2.55;;;;;;;5.63;62.87;99077.25;7397438;19;19918;-73
2023/04/03 04:34:55;;;;;;;3.35;3.05;;;;;;;5.60;62.60;99070.44;7394202;19;19914;-72
2023/04/03 04:37:22;;;;;;;3.60;2.60;;;;;;;5.59;61.56;99075.81;7395320;19;19926;-73
2023/04/03 04:39:49;;;;;;;3.72;2.42;;;;;;;5.48;60.62;99081.81;7388545;19;19925;-72
2023/04/03 04:42:16;;;;;;;3.45;2.78;;;;;;;5.51;61.85;99081.59;7393153;19;19951;-72
2023/04/03 04:44:45;;;;;;;2.67;2.20;;;;;;;5.52;62.26;99075.38;7388061;19;19925;-73
2023/04/03 04:47:13;;;;;;;2.80;2.55;;;;;;;5.38;60.97;99083.38;7390696;19;19918;-72
2023/04/03 04:49:41;;;;;;;3.42;2.97;;;;;;;5.42;61.78;99082.22;7389383;19;19923;-72
2023/04/03 04:52:08;;;;;;;3.83;3.53;;;;;;;5.43;62.13;99087.38;7394478;19;19914;-72
2023/04/03 04:54:35;;;;;;;5.13;4.75;;;;;;;5.41;61.95;99080.53;7392291;19;20301;-72
2023/04/03 04:57:02;;;;;;;3.03;2.45;;;;;;;5.49;63.01;99080.84;7393770;19;19923;-72
2023/04/03 04:59:30;;;;;;;3.75;2.80;;;;;;;5.45;62.76;99089.88;7393095;19;19923;-72
2023/04/03 05:01:57;;;;;;;3.40;3.20;;;;;;;5.46;62.42;99084.53;7392458;19;19986;-72
2023/04/03 05:04:25;;;;;;;3.45;3.15;;;;;;;5.41;62.84;99085.78;7391778;19;19919;-72
2023/04/03 05:06:59;;;;;;;3.42;2.97;;;;;;;5.37;62.55;99089.56;7396398;19;19919;-72
2023/04/03 05:09:28;;;;;;;3.60;3.13;;;;;;;5.32;62.16;99092.53;7396276;19;19922;-73
2023/04/03 05:11:56;;;;;;;2.72;2.53;;;;;;;5.31;62.42;99090.00;7394306;19;20328;-72
2023/04/03 05:14:25;;;;;;;4.90;2.63;;;;;;;5.36;62.66;99099.22;7397911;19;19970;-72
2023/04/03 05:16:55;;;;;;;4.10;3.80;;;;;;;5.32;62.48;99092.53;7395809;19;20322;-72
2023/04/03 05:19:25;;;;;;;2.63;2.42;;;;;;;5.15;62.02;99098.91;7395645;19;19923;-72
2023/04/03 05:21:52;;;;;;;4.30;3.22;;;;;;;5.11;62.03;99104.44;7391507;19;19922;-72
2023/04/03 05:24:19;;;;;;;3.35;3.05;;;;;;;5.16;62.79;99103.22;7393130;19;19930;-72
2023/04/03 05:26:46;;;;;;;4.57;3.15;;;;;;;5.00;62.03;99103.41;7396564;19;20629;-72
2023/04/03 05:29:14;;;;;;;4.65;3.40;;;;;;;5.03;62.53;99103.19;7396557;19;19946;-72
2023/04/03 05:31:41;;;;;;;4.88;3.83;;;;;;;4.98;62.56;99107.06;7392662;19;19914;-73
2023/04/03 05:34:10;;;;;;;4.13;3.10;;;;;;;4.90;62.33;99112.81;7394476;19;20339;-72
2023/04/03 05:36:38;;;;;;;3.83;3.00;;;;;;;4.96;63.19;99111.56;7392696;19;19922;-72
2023/04/03 05:39:07;;;;;;;4.50;4.13;;;;;;;4.75;62.10;99117.28;7395232;19;19962;-72
2023/04/03 05:41:37;;;;;;;3.08;2.78;;;;;;;4.82;62.20;99112.50;7394700;19;19922;-72
2023/04/03 05:44:04;;;;;;;3.60;3.13;;;;;;;4.83;62.44;99115.00;7393870;19;19917;-72
2023/04/03 05:46:31;;;;;;;5.55;3.03;;;;;;;5.00;63.06;99111.28;7395870;19;19914;-72
2023/04/03 05:49:02;;;;;;;3.65;2.63;;;;;;;5.09;63.21;99119.47;7392578;19;19922;-72
2023/04/03 05:51:34;;;;;;;3.08;2.88;;;;;;;5.19;62.10;99123.16;7388500;19;19938;-72
2023/04/03 05:54:26;;;;;;;3.83;3.50;;;;;;;5.32;62.23;99115.28;7394909;19;19918;-72
2023/04/03 05:57:00;;;;;;;3.15;2.85;;;;;;;5.35;61.53;99117.72;7394290;19;19918;-72
2023/04/03 05:59:27;;;;;;;3.42;2.60;;;;;;;5.44;61.86;99122.31;7396671;19;19926;-72
2023/04/03 06:01:56;;;;;;;3.08;2.58;;;;;;;5.60;62.58;99120.31;7393142;19;19922;-72
2023/04/03 06:04:24;;;;;;;3.05;2.72;;;;;;;5.53;61.15;99120.84;7395394;19;19931;-72
2023/04/03 06:06:54;;;;;;;2.53;2.33;;;;;;;5.52;61.07;99122.63;7393135;19;20010;-72
2023/04/03 06:09:24;;;;;;;5.97;4.93;;;;;;;5.49;61.46;99130.72;7393405;19;20272;-72
2023/04/03 06:11:51;;;;;;;2.55;2.10;;;;;;;5.50;60.55;99124.50;7394379;19;19937;-72
2023/04/03 06:14:21;;;;;;;3.70;2.67;;;;;;;5.72;62.22;99123.88;7396164;19;19926;-72
2023/04/03 06:16:48;;;;;;;3.67;2.55;;;;;;;5.74;61.45;99132.50;7396378;19;19922;-72
2023/04/03 06:19:15;;;;;;;3.83;3.47;;;;;;;5.57;60.32;99130.19;7394433;19;19927;-72
2023/04/03 06:21:47;;;;;;;5.18;2.95;;;;;;;5.82;61.60;99142.44;7392473;19;19914;-72
2023/04/03 06:24:15;;;;;;;3.88;2.78;;;;;;;5.81;61.59;99136.38;7391497;19;19922;-72
2023/04/03 06:26:43;;;;;;;2.78;2.50;;;;;;;5.97;62.41;99138.78;7394912;19;19926;-72
2023/04/03 06:29:10;;;;;;;3.15;2.85;;;;;;;5.96;61.21;99145.00;7398679;19;19918;-72
2023/04/03 06:31:36;;;;;;;7.55;2.95;;;;;;;6.03;62.10;99146.25;7398086;19;19922;-72
2023/04/03 06:34:03;;;;;;;3.35;2.97;;;;;;;6.02;61.36;99151.59;7395228;19;19918;-72
2023/04/03 06:36:34;;;;;;;3.95;2.72;;;;;;;6.14;61.39;99148.97;7397512;19;20364;-71
2023/04/03 06:39:02;;;;;;;4.35;3.83;;;;;;;6.00;59.79;99148.25;7393534;19;19942;-73
2023/04/03 06:41:30;;;;;;;3.25;2.88;;;;;;;5.98;60.64;99148.38;7392822;19;19939;-72
2023/04/03 06:43:57;;;;;;;3.45;2.65;;;;;;;6.27;62.31;99158.59;7396032;19;19921;-72
2023/04/03 06:46:25;;;;;;;3.33;3.05;;;;;;;6.32;60.78;99151.25;7392067;19;19918;-72
2023/04/03 06:48:53;;;;;;;3.67;3.25;;;;;;;6.42;61.54;99152.22;7389425;19;19914;-72
2023/04/03 06:51:26;;;;;;;3.67;2.85;;;;;;;6.55;61.53;99155.66;7393518;19;19922;-72
2023/04/03 06:53:55;;;;;;;5.03;3.20;;;;;;;6.24;59.19;99157.03;7391800;19;19946;-72
2023/04/03 06:56:22;;;;;;;3.42;2.70;;;;;;;6.44;60.80;99152.97;7389206;19;19926;-72
2023/04/03 06:58:50;;;;;;;3.85;2.97;;;;;;;6.64;61.43;99156.78;7393975;19;19954;-72
2023/04/03 07:01:19;;;;;;;3.67;2.92;;;;;;;6.41;58.96;99161.06;7388764;19;20374;-72
2023/04/03 07:03:47;;;;;;;5.40;3.13;;;;;;;6.71;60.90;99154.53;7389142;19;19926;-72
2023/04/03 07:06:16;;;;;;;4.80;4.32;;;;;;;6.79;60.53;99165.34;7392641;19;20272;-72
2023/04/03 07:08:44;;;;;;;4.28;3.90;;;;;;;6.69;59.24;99164.31;7399925;19;20235;-72
2023/04/03 07:11:12;;;;;;;4.80;3.72;;;;;;;6.96;60.45;99166.75;7400597;19;19918;-72
2023/04/03 07:13:39;;;;;;;3.35;3.13;;;;;;;6.95;58.87;99167.69;7400911;19;19923;-71
2023/04/03 07:16:08;;;;;;;4.53;2.83;;;;;;;7.16;60.13;99170.50;7400835;19;19947;-71
2023/04/03 07:18:35;;;;;;;3.05;2.67;;;;;;;7.37;60.77;99175.97;7398790;19;20842;-71
2023/04/03 07:21:03;;;;;;;4.38;2.85;;;;;;;7.28;59.01;99166.13;7401089;19;19926;-71
2023/04/03 07:23:30;;;;;;;3.25;2.72;;;;;;;7.39;59.88;99171.41;7400461;19;19926;-72
2023/04/03 07:25:56;;;;;;;4.38;3.35;;;;;;;7.39;58.20;99174.06;7399345;19;19932;-72
2023/04/03 07:28:24;;;;;;;3.85;2.50;;;;;;;7.36;58.43;99175.13;7403039;19;19919;-72
2023/04/03 07:30:53;;;;;;;3.55;3.20;;;;;;;7.47;59.04;99174.31;7401445;19;19922;-71
2023/04/03 07:33:22;;;;;;;2.40;2.20;;;;;;;7.65;58.65;99172.06;7399323;19;19922;-71
2023/04/03 07:35:49;;;;;;;3.08;2.60;;;;;;;7.73;58.83;99180.22;7397329;19;19958;-72
2023/04/03 07:38:16;;;;;;;3.33;2.53;;;;;;;7.73;59.08;99179.38;7392772;19;20300;-72
2023/04/03 07:40:50;;;;;;;3.60;2.30;;;;;;;7.78;58.83;99183.34;7397092;19;19960;-71
2023/04/03 07:43:17;;;;;;;2.55;2.35;;;;;;;7.72;58.67;99185.63;7398346;19;19952;-72
2023/04/03 07:45:44;;;;;;;3.35;2.53;;;;;;;7.57;58.16;99185.00;7399381;19;19918;-71
2023/04/03 07:48:12;;;;;;;4.43;4.03;;;;;;;7.55;59.15;99181.63;7399866;19;22434;-72
2023/04/03 07:50:42;;;;;;;2.95;2.67;;;;;;;7.67;59.25;99191.22;7397418;19;19914;-71
2023/04/03 07:53:09;;;;;;;4.70;3.17;;;;;;;7.53;57.99;99181.75;7393925;19;19914;-72
2023/04/03 07:55:42;;;;;;;3.85;2.78;;;;;;;7.26;57.38;99192.56;7399579;19;19943;-71
2023/04/03 07:58:15;;;;;;;3.53;2.72;;;;;;;7.32;59.05;99188.63;7391809;19;19956;-72
2023/04/03 08:00:42;;;;;;;4.90;4.28;;;;;;;7.28;58.18;99189.81;7401097;19;19915;-71
2023/04/03 08:03:10;;;;;;;3.70;2.85;;;;;;;7.46;59.23;99191.91;7394018;19;19946;-71
2023/04/03 08:05:42;;;;;;;4.35;3.92;;;;;;;7.30;58.33;99195.81;7395545;19;19925;-71
2023/04/03 08:08:11;;;;;;;5.00;3.42;;;;;;;7.13;57.80;99194.44;7400565;19;19919;-71
2023/04/03 08:10:38;;;;;;;2.53;2.33;;;;;;;7.22;59.49;99196.38;7399256;19;20003;-71
2023/04/03 08:13:05;;;;;;;3.50;3.20;;;;;;;7.15;57.92;99200.41;7396296;19;20335;-72
2023/04/03 08:15:32;;;;;;;5.03;3.38;;;;;;;7.41;58.82;99198.47;7399277;19;19919;-71
2023/04/03 08:18:00;;;;;;;4.88;4.47;;;;;;;7.50;57.80;99196.94;7398463;19;20439;-70
2023/04/03 08:20:27;;;;;;;4.53;2.67;;;;;;;7.58;56.86;99199.81;7398583;19;19921;-71
2023/04/03 08:22:54;;;;;;;3.67;2.72;;;;;;;7.63;56.53;99198.50;7391769;19;19950;-71
2023/04/03 08:25:21;;;;;;;3.45;3.10;;;;;;;7.73;58.05;99201.28;7396549;19;19921;-71
2023/04/03 08:27:48;;;;;;;7.05;3.00;;;;;;;7.96;56.45;99203.97;7397769;19;19930;-71
2023/04/03 08:30:15;;;;;;;4.85;2.45;;;;;;;7.66;56.06;99197.44;7402470;19;19918;-71
2023/04/03 08:32:43;;;;;;;3.65;2.90;;;;;;;7.79;57.32;99200.81;7398117;19;19918;-71
2023/04/03 08:35:10;;;;;;;3.95;3.08;;;;;;;7.95;58.68;99197.00;7400870;19;19943;-71
2023/04/03 08:37:38;;;;;;;6.28;3.13;;;;;;;8.36;57.84;99196.41;7400161;19;19919;-71
2023/04/03 08:40:08;;;;;;;3.20;2.15;;;;;;;8.72;57.50;99205.84;7397973;19;19918;-71
2023/04/03 08:43:19;;;;;;;5.53;2.58;;;;;;;8.98;56.43;99193.19;7395437;19;19915;-70
2023/04/03 08:45:50;;;;;;;4.68;3.67;;;;;;;9.26;55.20;99200.63;7397371;19;20249;-70
2023/04/03 08:48:24;;;;;;;2.90;2.53;;;;;;;9.63;53.52;99191.28;7395355;19;19930;-70
2023/04/03 08:50:57;;;;;;;2.65;2.42;;;;;;;9.87;51.41;99198.09;7395660;19;19919;-71
2023/04/03 08:53:31;;;;;;;3.05;2.17;;;;;;;9.40;50.74;99197.66;7394032;19;19919;-71
2023/04/03 08:55:59;;;;;;;3.60;2.53;;;;;;;9.59;52.82;99199.63;7393146;19;19925;-71
2023/04/03 08:58:31;;;;;;;3.35;2.47;;;;;;;9.72;51.11;99189.69;7392978;19;19914;-71
2023/04/03 09:01:20;;;;;;;4.03;2.50;;;;;;;9.27;49.61;99194.38;7394776;19;19943;-70
2023/04/03 09:03:47;;;;;;;2.67;2.47;;;;;;;9.33;52.98;99197.34;7393996;19;19982;-71
2023/04/03 09:06:30;;;;;;;4.00;2.50;;;;;;;9.11;52.99;99202.72;7396264;19;19937;-71
2023/04/03 09:09:15;;;;;;;6.07;3.65;;;;;;;9.47;54.59;99203.28;7398133;19;19919;-71
2023/04/03 09:12:09;;;;;;;3.42;3.10;;;;;;;9.58;52.58;99205.84;7396836;19;19914;-70
2023/04/03 09:14:39;;;;;;;2.95;2.30;;;;;;;9.64;52.81;99206.19;7400871;19;19970;-70
2023/04/03 09:17:31;;;;;;;3.50;2.13;;;;;;;9.98;51.50;99205.97;7397638;19;19915;-70
2023/04/03 09:20:09;;;;;;;3.42;2.47;;;;;;;10.09;51.98;99205.03;7397696;19;19921;-70
2023/04/03 09:22:39;;;;;;;3.90;2.35;;;;;;;9.53;47.75;99202.75;7394767;19;19922;-71
2023/04/03 09:25:27;;;;;;;2.50;2.22;;;;;;;9.78;51.55;99201.53;7396112;19;19951;-70
2023/04/03 09:27:57;;;;;;;2.83;2.63;;;;;;;9.82;50.78;99208.22;7393831;19;21065;-71
2023/04/03 09:30:26;;;;;;;2.42;2.15;;;;;;;10.05;52.05;99203.63;7396542;19;19914;-70
2023/04/03 09:32:54;;;;;;;2.10;1.90;;;;;;;10.07;50.84;99199.03;7395701;19;19926;-70
2023/04/03 09:35:35;;;;;;;4.75;2.08;;;;;;;9.94;51.29;99203.72;7400217;19;19917;-71
2023/04/03 09:38:15;;;;;;;2.70;1.98;;;;;;;9.65;48.50;99194.66;7398714;19;19986;-70
2023/04/03 09:40:45;;;;;;;2.63;2.10;;;;;;;9.52;49.87;99201.09;7397220;19;19925;-70
2023/04/03 09:43:52;;;;;;;3.95;2.80;;;;;;;9.81;50.35;99201.28;7394622;19;19952;-70
2023/04/03 09:46:24;;;;;;;2.75;2.15;;;;;;;9.87;51.13;99198.97;7391577;19;19926;-71
2023/04/03 09:49:02;;;;;;;3.38;2.72;;;;;;;9.76;49.42;99199.00;7397332;19;19926;-70
2023/04/03 09:51:32;;;;;;;3.50;2.13;;;;;;;9.53;47.71;99195.69;7395987;19;19918;-70
2023/04/03 09:53:59;;;;;;;5.00;4.70;;;;;;;9.55;50.83;99195.56;7394827;19;20232;-70
2023/04/03 09:56:30;;;;;;;3.72;2.10;;;;;;;9.44;50.46;99199.94;7393611;19;19919;-71
2023/04/03 09:58:59;;;;;;;2.45;2.05;;;;;;;9.33;49.23;99201.81;7395960;19;19918;-70
2023/04/03 10:01:30;;;;;;;2.78;2.20;;;;;;;9.41;51.58;99200.19;7398777;19;19926;-70
2023/04/03 10:04:10;;;;;;;;;;;;;;;9.21;47.94;99201.00;7400172;19;22408;-70
2023/04/03 10:06:58;;;;;;;;;;;;;;;9.18;49.38;99194.16;7397017;19;20709;-70
2023/04/03 10:09:26;;;;;;;3.63;2.30;;;;;;;9.34;51.21;99201.66;7398313;19;19922;-71
2023/04/03 10:12:10;;;;;;;3.40;2.22;;;;;;;9.31;50.51;99195.81;7397791;19;19947;-71
2023/04/03 10:14:58;;;;;;;3.05;2.58;;;;;;;9.10;51.34;99199.25;7397342;19;19925;-71
2023/04/03 10:17:28;;;;;;;;;;;;;;;9.17;51.98;99195.16;7399652;19;19922;-70
2023/04/03 10:20:07;;;;;;;1.83;1.67;;;;;;;9.08;50.47;99185.31;7397696;19;19918;-71
2023/04/03 10:22:42;;;;;;;5.82;2.05;;;;;;;9.22;49.90;99184.22;7396194;19;19918;-70
2023/04/03 10:25:12;;;;;;;2.25;2.05;;;;;;;9.21;50.69;99183.34;7388956;19;20276;-71
2023/04/03 10:27:41;;;;;;;2.35;1.95;;;;;;;9.05;49.65;99182.13;7391258;19;19918;-71
2023/04/03 10:30:34;;;;;;;2.35;1.83;;;;;;;9.06;50.70;99187.28;7395483;19;19942;-70
2023/04/03 10:33:19;;;;;;;2.70;2.50;;;;;;;8.87;50.05;99185.28;7390703;19;20323;-70
2023/04/03 10:36:13;;;;;;;4.47;2.33;;;;;;;8.64;47.75;99188.97;7394094;19;19922;-71
2023/04/03 10:39:18;;;;;;;2.90;2.40;;;;;;;8.74;49.34;99187.25;7387949;19;20501;-71
2023/04/03 10:42:11;;;;;;;3.78;3.38;;;;;;;8.98;48.72;99180.00;7393673;19;20227;-71
2023/04/03 10:45:07;;;;;;;2.10;1.88;;;;;;;9.32;50.73;99179.84;7396433;19;19915;-71
2023/04/03 10:47:56;;;;;;;1.98;1.88;;;;;;;9.57;49.94;99177.78;7390686;19;19922;-70
2023/04/03 10:50:40;;;;;;;1.27;1.17;;;;;;;9.38;46.46;99181.97;7384493;19;19922;-71
2023/04/03 10:53:17;;;;;;;4.25;3.85;;;;;;;9.61;50.17;99172.09;7380653;19;20281;-71
2023/04/03 10:55:55;;;;;;;1.55;1.45;;;;;;;9.61;48.06;99164.19;7384771;19;19938;-70
2023/04/03 10:58:30;;;;;;;3.00;2.53;;;;;;;9.53;47.62;99171.94;7387427;19;19915;-70
2023/04/03 11:01:01;;;;;;;2.72;2.45;;;;;;;9.49;47.90;99167.84;7383853;19;19925;-71
2023/04/03 11:03:36;;;;;;;2.97;1.60;;;;;;;9.34;45.56;99174.41;7382727;19;19957;-71
2023/04/03 11:06:10;;;;;;;2.53;1.58;;;;;;;9.14;45.75;99181.38;7379976;19;19926;-70
2023/04/03 11:09:08;;;;;;;1.67;1.50;;;;;;;9.21;48.23;99177.25;7382786;19;19921;-70
2023/04/03 11:11:38;;;;;;;2.58;1.73;;;;;;;9.32;50.14;99176.34;7383145;19;19918;-70
2023/04/03 11:14:16;;;;;;;2.40;1.75;;;;;;;9.47;50.27;99176.88;7380301;19;19926;-71
2023/04/03 11:16:47;;;;;;;3.67;2.65;;;;;;;9.19;45.47;99169.47;7381387;19;19923;-71
2023/04/03 11:19:24;;;;;;;2.65;1.73;;;;;;;8.77;47.53;99168.56;7387818;19;19990;-70
2023/04/03 11:21:56;;;;;;;1.70;1.60;;;;;;;8.55;46.72;99174.72;7386079;19;19937;-70
2023/04/03 11:24:26;;;;;;;3.22;1.77;;;;;;;8.86;49.73;99169.59;7379111;19;19923;-70
2023/04/03 11:26:55;;;;;;;2.33;2.13;;;;;;;9.04;49.88;99170.72;7383433;19;19943;-70
2023/04/03 11:29:26;;;;;;;2.78;2.08;;;;;;;8.95;48.41;99174.09;7387817;19;19922;-70
2023/04/03 11:32:29;;;;;;;5.22;4.15;;;;;;;8.95;48.18;99163.53;7383462;19;20430;-70
2023/04/03 11:34:59;;;;;;;2.85;1.63;;;;;;;9.18;49.50;99173.03;7380914;19;20002;-71
2023/04/03 11:37:35;;;;;;;4.93;3.17;;;;;;;9.29;48.37;99168.69;7387985;19;19926;-70
2023/04/03 11:40:07;;;;;;;2.95;1.98;;;;;;;9.31;46.61;99169.41;7377985;19;19938;-70
2023/04/03 11:42:39;;;;;;;3.78;3.58;;;;;;;9.56;45.81;99161.09;7382633;19;20263;-70
2023/04/03 11:45:26;;;;;;;3.95;2.00;;;;;;;9.83;48.11;99165.81;7375445;19;19943;-71
2023/04/03 11:47:55;;;;;;;2.20;1.90;;;;;;;9.96;47.77;99157.69;7373016;19;19978;-71
2023/04/03 11:50:40;;;;;;;2.05;1.80;;;;;;;10.32;49.12;99158.09;7386699;19;19922;-70
2023/04/03 11:53:07;;;;;;;3.45;2.00;;;;;;;10.06;47.27;99158.56;7381332;19;19951;-70
2023/04/03 11:55:35;;;;;;;2.13;1.70;;;;;;;10.08;47.92;99156.63;7389329;19;20286;-70
2023/04/03 11:58:11;;;;;;;3.13;2.20;;;;;;;9.89;46.25;99152.06;7387095;19;19924;-70